Etusivu
METAR-TAF:

METAR-TAF

Lentoasemat :

Dullesin kansainvälinen lentoasema

Washington, Virginia, Yhdysvallat

Leveyspiiri: 38-56-05N, Pituuspiiri: 077-26-51W, korkeus merenpinnasta: 95 m

Tämänhetkinen sää

Tämä raportti tehtiin 48 minuuttia sitten, kello 07.52 UTC
tyyntä
Lämpötila -7°C
Kosteus 93%
Ilmanpaine 1023 hPa
Näkyvyys: 16.1 km
Muutamia pilviä 25000 ft:n korkeudessa

METAR: KIAD 110752Z 00000KT 10SM FEW250 M07/M08 A3020 RMK AO2 SLP229 T10671078 $

Aika: 03:40 (08:40 UTC)

Sääennuste

Tämä raportti tehtiin 3 tuntia ja 7 minuuttia sitten, kello 05.33 UTC
Ennuste voimassa 11. päivästä klo 06 UTC - 12. päivään klo 12 UTC
Tuuli 3 kn eri suunnista
Näkyvyys: 10 km
Muutamia pilviä 25000 ft:n korkeudessa
From 11. päivästä klo 1600 UTC
Tuuli 6 kn lännestä
Näkyvyys: 10 km
selkeää
From 11. päivästä klo 2200 UTC
Tuuli 4 kn lounaasta
Näkyvyys: 10 km
selkeää

TAF: KIAD 110533Z 1106/1212 VRB03KT P6SM FEW250 FM111600 27006KT P6SM SKC FM112200 23004KT P6SM SKC

Säähavainnot ja -ennusteet yli 4000 lentoasemalta (METAR- ja TAF-raportit).

Käytössä olevat sääasemat on merkitty karttaan keltaisilla ja punaisilla pisteillä.

Aseta hiiri pisteen päälle nähdäksesi sääaseman nimen.

Klikkaa sitten nähdäksesi säähavainnot ja -ennusteet.

Kartan vaihtaminen: klikkaa mustalla rastilla varustettuja vihreitä pisteitä, niin voit zoomata sisään; viivalla varustettua vihreää pistettä, niin voit zoomata ulos tai vihreitä nuolia, niin pääset viereisille kartoille.


METAR-TAF: